Terminal Aerodrome Forecast
Issued by NWS

Home | Current Version | Previous Version | Text Only | Print | Product List | Glossary On
Versions: 1 2 3 4 5 6 7 8 9 10 11 12 13 14 15 16 17 18 19 20 21
795
FTUS43 KIWX 121951 AAA
TAFSBN
TAF AMD
KSBN 121951Z 1220/1318 31018G29KT 6SM -SHSN SCT020 OVC040
      TEMPO 1220/1223 1/4SM +SHSN BLSN BKN006 OVC015
     FM130100 26007KT P6SM OVC070
     FM131200 22006KT P6SM -SN BKN070
     FM131400 16007KT 4SM -SN OVC025=

USA.gov is the U.S. government's official web portal to all federal, state and local government web resources and services.